createdAt,value
2022-08-17T00:02:21.245Z,17.57
2022-08-17T00:04:47.071Z,17.47
2022-08-17T00:07:07.715Z,17.42
2022-08-17T00:09:24.724Z,17.38
2022-08-17T00:11:42.756Z,17.35
2022-08-17T00:14:19.848Z,17.34
2022-08-17T00:16:55.606Z,17.32
2022-08-17T00:19:14.257Z,17.29
2022-08-17T00:21:59.960Z,17.34
2022-08-17T00:24:08.858Z,17.34
2022-08-17T00:26:44.273Z,17.31
2022-08-17T00:29:05.202Z,17.30
2022-08-17T00:31:22.231Z,17.30
2022-08-17T00:33:39.171Z,17.28
2022-08-17T00:35:57.384Z,17.27
2022-08-17T00:38:14.537Z,17.26
2022-08-17T00:40:40.671Z,17.23
2022-08-17T00:43:01.996Z,17.19
2022-08-17T00:45:19.205Z,17.16
2022-08-17T00:47:36.257Z,17.18
2022-08-17T00:49:54.223Z,17.11
2022-08-17T00:52:12.028Z,17.10
2022-08-17T00:54:29.772Z,17.11
2022-08-17T00:56:46.923Z,17.11
2022-08-17T00:59:03.839Z,17.11
2022-08-17T01:01:21.954Z,17.12
2022-08-17T01:03:40.545Z,17.10
2022-08-17T01:05:57.867Z,17.14
2022-08-17T01:08:16.362Z,17.15
2022-08-17T01:10:58.556Z,17.17
2022-08-17T01:13:11.405Z,17.11
2022-08-17T01:15:31.157Z,17.14
2022-08-17T01:17:48.568Z,17.16
2022-08-17T01:20:05.642Z,17.16
2022-08-17T01:22:23.736Z,17.10
2022-08-17T01:24:43.126Z,17.07
2022-08-17T01:27:00.052Z,17.06
2022-08-17T01:29:18.557Z,17.02
2022-08-17T01:31:35.843Z,17.03
2022-08-17T01:33:53.365Z,17.02
2022-08-17T01:36:10.464Z,17.02
2022-08-17T01:38:27.440Z,16.96
2022-08-17T01:40:46.464Z,16.95
2022-08-17T01:43:04.252Z,16.99
2022-08-17T01:45:21.210Z,17.02
2022-08-17T01:47:38.206Z,16.98
2022-08-17T01:50:13.712Z,16.94
2022-08-17T01:52:30.939Z,16.93
2022-08-17T01:54:48.287Z,16.90
2022-08-17T01:57:05.331Z,16.91
2022-08-17T01:59:23.602Z,16.85
2022-08-17T02:01:43.170Z,16.86
2022-08-17T02:04:01.797Z,16.85
2022-08-17T02:06:27.666Z,16.83
2022-08-17T02:09:03.020Z,16.86
2022-08-17T02:11:20.775Z,16.91
2022-08-17T02:13:38.253Z,16.88
2022-08-17T02:15:56.952Z,16.86
2022-08-17T02:18:14.352Z,16.85
2022-08-17T02:20:41.598Z,16.85
2022-08-17T02:23:00.142Z,16.86
2022-08-17T02:25:17.163Z,16.85
2022-08-17T02:27:36.853Z,16.80
2022-08-17T02:29:56.906Z,16.80
2022-08-17T02:32:25.465Z,16.80
2022-08-17T02:34:45.613Z,16.77
2022-08-17T02:37:03.949Z,16.72
2022-08-17T02:39:21.204Z,16.68
2022-08-17T02:41:38.272Z,16.66
2022-08-17T02:43:55.352Z,16.66
2022-08-17T02:46:12.861Z,16.61
2022-08-17T02:48:31.051Z,16.61
2022-08-17T02:50:49.811Z,16.61
2022-08-17T02:53:07.094Z,16.59
2022-08-17T02:55:24.639Z,16.59
2022-08-17T02:57:42.544Z,16.58
2022-08-17T03:00:00.848Z,16.57
2022-08-17T03:02:17.815Z,16.53
2022-08-17T03:04:36.545Z,16.53
2022-08-17T03:06:53.599Z,16.54
2022-08-17T03:09:11.901Z,16.56
2022-08-17T03:11:28.975Z,16.56
2022-08-17T03:13:46.013Z,16.56
2022-08-17T03:16:03.106Z,16.51
2022-08-17T03:18:25.409Z,16.47
2022-08-17T03:20:43.062Z,16.45
2022-08-17T03:23:02.957Z,16.43
2022-08-17T03:25:20.431Z,16.41
2022-08-17T03:27:42.049Z,16.39
2022-08-17T03:30:01.567Z,16.37
2022-08-17T03:32:18.847Z,16.37
2022-08-17T03:34:37.110Z,16.42
2022-08-17T03:36:54.430Z,16.40
2022-08-17T03:39:11.275Z,16.40
2022-08-17T03:41:29.120Z,16.38
2022-08-17T03:43:46.139Z,16.39
2022-08-17T03:46:03.066Z,16.33
2022-08-17T03:48:20.688Z,16.34
2022-08-17T03:50:37.639Z,16.34
2022-08-17T03:52:54.640Z,16.33
2022-08-17T03:55:12.916Z,16.35
2022-08-17T03:57:30.183Z,16.36
2022-08-17T03:59:47.670Z,16.35
2022-08-17T04:02:04.844Z,16.38
2022-08-17T04:04:27.785Z,16.46
2022-08-17T04:06:45.166Z,16.44
2022-08-17T04:09:03.222Z,16.55
2022-08-17T04:11:20.540Z,16.69
2022-08-17T04:13:38.584Z,16.69
2022-08-17T04:15:55.918Z,16.69
2022-08-17T04:18:12.920Z,16.65
2022-08-17T04:20:29.924Z,16.71
2022-08-17T04:22:46.970Z,16.74
2022-08-17T04:25:07.189Z,16.70
2022-08-17T04:27:24.501Z,16.66
2022-08-17T04:29:54.207Z,16.64
2022-08-17T04:32:12.780Z,16.62
2022-08-17T04:34:29.725Z,16.62
2022-08-17T04:36:46.745Z,16.64
2022-08-17T04:39:08.511Z,16.66
2022-08-17T04:41:25.744Z,16.65
2022-08-17T04:43:43.122Z,16.61
2022-08-17T04:46:00.149Z,16.59
2022-08-17T04:48:18.449Z,16.66
2022-08-17T04:50:36.411Z,16.66
2022-08-17T04:52:54.901Z,16.61
2022-08-17T04:55:12.467Z,16.62
2022-08-17T04:57:29.518Z,16.65
2022-08-17T04:59:56.645Z,16.66
2022-08-17T05:02:13.614Z,16.70
2022-08-17T05:04:34.205Z,16.74
2022-08-17T05:06:53.461Z,16.84
2022-08-17T05:09:10.789Z,16.90
2022-08-17T05:11:29.022Z,16.94
2022-08-17T05:13:46.254Z,16.93
2022-08-17T05:16:03.413Z,16.95
2022-08-17T05:18:20.435Z,16.92
2022-08-17T05:20:37.665Z,16.94
2022-08-17T05:22:55.601Z,16.99
2022-08-17T05:25:12.645Z,17.09
2022-08-17T05:27:35.926Z,17.19
2022-08-17T05:29:53.227Z,17.25
2022-08-17T05:32:39.571Z,17.33
2022-08-17T05:34:48.793Z,17.32
2022-08-17T05:37:06.047Z,17.38
2022-08-17T05:39:23.304Z,17.40
2022-08-17T05:41:40.594Z,17.41
2022-08-17T05:43:57.658Z,17.51
2022-08-17T05:46:14.889Z,17.60
2022-08-17T05:48:35.452Z,17.73
2022-08-17T05:50:56.925Z,17.74
2022-08-17T05:53:13.893Z,17.80
2022-08-17T05:55:30.963Z,17.83
2022-08-17T05:57:53.371Z,17.86
2022-08-17T06:00:11.306Z,17.83
2022-08-17T06:02:28.333Z,17.92
2022-08-17T06:04:45.636Z,17.94
2022-08-17T06:07:03.945Z,17.94
2022-08-17T06:09:25.873Z,17.96
2022-08-17T06:11:46.257Z,18.01
2022-08-17T06:14:03.290Z,18.14
2022-08-17T06:16:25.994Z,18.17
2022-08-17T06:18:51.586Z,18.19
2022-08-17T06:21:08.860Z,18.27
2022-08-17T06:23:27.133Z,18.41
2022-08-17T06:25:44.207Z,18.47
2022-08-17T06:28:01.445Z,18.46
2022-08-17T06:30:18.458Z,18.43
2022-08-17T06:32:36.729Z,18.45
2022-08-17T06:34:53.789Z,18.49
2022-08-17T06:37:10.798Z,18.56
2022-08-17T06:39:28.142Z,18.65
2022-08-17T06:41:45.251Z,18.74
2022-08-17T06:44:02.221Z,18.73
2022-08-17T06:46:19.619Z,18.80
2022-08-17T06:48:36.529Z,18.85
2022-08-17T06:50:53.465Z,18.83
2022-08-17T06:53:10.428Z,18.92
2022-08-17T06:55:27.481Z,18.94
2022-08-17T06:57:45.372Z,18.94
2022-08-17T07:00:03.682Z,19.02
2022-08-17T07:02:29.212Z,19.11
2022-08-17T07:04:59.298Z,19.21
2022-08-17T07:07:17.572Z,19.27
2022-08-17T07:09:34.609Z,19.32
2022-08-17T07:11:51.676Z,19.41
2022-08-17T07:14:08.958Z,19.44
2022-08-17T07:16:25.993Z,19.55
2022-08-17T07:18:43.336Z,19.56
2022-08-17T07:21:00.288Z,19.63
2022-08-17T07:23:18.598Z,19.71
2022-08-17T07:25:35.503Z,19.82
2022-08-17T07:27:52.704Z,19.94
2022-08-17T07:30:11.106Z,20.09
2022-08-17T07:32:28.406Z,20.20
2022-08-17T07:34:45.448Z,20.29
2022-08-17T07:37:02.788Z,20.38
2022-08-17T07:39:19.878Z,20.43
2022-08-17T07:41:57.241Z,20.47
2022-08-17T07:44:14.733Z,20.53
2022-08-17T07:46:31.872Z,20.50
2022-08-17T07:48:49.268Z,20.52
2022-08-17T07:51:07.533Z,20.54
2022-08-17T07:53:24.564Z,20.58
2022-08-17T07:55:41.906Z,20.58
2022-08-17T07:57:58.964Z,20.59
2022-08-17T08:00:16.307Z,20.61
2022-08-17T08:02:33.973Z,20.68
2022-08-17T08:05:06.755Z,20.73
2022-08-17T08:07:27.081Z,20.81
2022-08-17T08:09:46.155Z,20.91
2022-08-17T08:12:03.364Z,21.01
2022-08-17T08:14:20.619Z,21.02
2022-08-17T08:16:37.545Z,21.08
2022-08-17T08:18:56.868Z,21.19
2022-08-17T08:21:14.777Z,21.30
2022-08-17T08:23:33.022Z,21.37
2022-08-17T08:25:53.487Z,21.44
2022-08-17T08:28:11.011Z,21.52
2022-08-17T08:30:28.040Z,21.60
2022-08-17T08:32:50.577Z,21.68
2022-08-17T08:35:07.945Z,21.77
2022-08-17T08:37:34.545Z,21.86
2022-08-17T08:39:53.092Z,21.92
2022-08-17T08:42:10.167Z,21.99
2022-08-17T08:45:00.413Z,22.03
2022-08-17T08:47:05.410Z,22.00
2022-08-17T08:49:34.010Z,21.98
2022-08-17T08:51:59.613Z,21.96
2022-08-17T08:54:17.625Z,21.96
2022-08-17T08:56:59.168Z,21.98
2022-08-17T08:59:22.037Z,22.00
2022-08-17T09:01:39.404Z,22.08
2022-08-17T09:04:10.908Z,22.17
2022-08-17T09:06:38.796Z,22.31
2022-08-17T09:08:57.103Z,22.37
2022-08-17T09:11:14.150Z,22.54
2022-08-17T09:13:31.168Z,22.70
2022-08-17T09:15:48.244Z,22.88
2022-08-17T09:18:59.185Z,23.25
2022-08-17T09:20:45.359Z,23.72
2022-08-17T09:23:06.516Z,24.26
2022-08-17T09:25:25.006Z,24.64
2022-08-17T09:27:43.334Z,25.02
2022-08-17T09:30:00.571Z,25.44
2022-08-17T09:32:17.702Z,25.52
2022-08-17T09:34:34.967Z,25.49
2022-08-17T09:36:52.572Z,25.60
2022-08-17T09:39:10.815Z,25.73
2022-08-17T09:41:28.143Z,25.85
2022-08-17T09:43:45.445Z,25.85
2022-08-17T09:46:02.529Z,25.97
2022-08-17T09:48:19.833Z,25.95
2022-08-17T09:50:55.447Z,25.86
2022-08-17T09:53:14.128Z,25.85
2022-08-17T09:55:31.436Z,25.86
2022-08-17T09:57:48.813Z,25.95
2022-08-17T10:00:06.059Z,26.08
2022-08-17T10:02:23.422Z,26.17
2022-08-17T10:04:40.702Z,26.34
2022-08-17T10:06:57.655Z,26.53
2022-08-17T10:09:14.963Z,26.68
2022-08-17T10:11:33.475Z,26.96
2022-08-17T10:13:51.032Z,27.19
2022-08-17T10:16:10.891Z,27.39
2022-08-17T10:18:31.926Z,27.71
2022-08-17T10:20:50.543Z,28.03
2022-08-17T10:23:07.893Z,28.26
2022-08-17T10:25:30.195Z,28.51
2022-08-17T10:28:00.163Z,28.61
2022-08-17T10:30:17.240Z,28.56
2022-08-17T10:32:35.145Z,28.58
2022-08-17T10:34:52.444Z,28.57
2022-08-17T10:37:09.679Z,28.70
2022-08-17T10:39:26.835Z,28.76
2022-08-17T10:41:43.959Z,29.01
2022-08-17T10:44:38.549Z,28.85
2022-08-17T10:46:39.490Z,28.58
2022-08-17T10:48:56.723Z,28.50
2022-08-17T10:51:14.777Z,28.68
2022-08-17T10:53:32.726Z,28.59
2022-08-17T10:55:50.014Z,28.70
2022-08-17T10:58:07.268Z,28.79
2022-08-17T11:00:27.616Z,29.12
2022-08-17T11:02:44.857Z,29.41
2022-08-17T11:05:01.920Z,29.56
2022-08-17T11:07:18.987Z,29.70
2022-08-17T11:09:36.000Z,29.84
2022-08-17T11:11:53.034Z,29.76
2022-08-17T11:14:10.057Z,29.56
2022-08-17T11:16:27.094Z,29.61
2022-08-17T11:18:44.154Z,29.83
2022-08-17T11:21:01.191Z,29.67
2022-08-17T11:23:18.272Z,29.84
2022-08-17T11:25:35.568Z,29.97
2022-08-17T11:27:52.863Z,30.07
2022-08-17T11:30:11.203Z,29.99
2022-08-17T11:32:30.255Z,29.88
2022-08-17T11:34:48.274Z,29.77
2022-08-17T11:37:05.567Z,29.82
2022-08-17T11:39:22.589Z,29.76
2022-08-17T11:41:39.826Z,29.50
2022-08-17T11:43:56.910Z,29.34
2022-08-17T11:46:14.015Z,28.97
2022-08-17T11:48:32.221Z,28.72
2022-08-17T11:50:49.681Z,28.77
2022-08-17T11:53:07.953Z,28.83
2022-08-17T11:55:35.029Z,28.62
2022-08-17T11:57:54.693Z,28.67
2022-08-17T12:00:11.705Z,28.64
2022-08-17T12:02:29.779Z,28.51
2022-08-17T12:04:50.478Z,28.72
2022-08-17T12:07:07.805Z,28.76
2022-08-17T12:09:24.914Z,29.00
2022-08-17T12:11:55.184Z,29.04
2022-08-17T12:14:24.378Z,29.36
2022-08-17T12:16:53.553Z,29.54
2022-08-17T12:19:10.570Z,29.99
2022-08-17T12:21:27.854Z,30.10
2022-08-17T12:23:44.914Z,30.34
2022-08-17T12:26:01.922Z,30.25
2022-08-17T12:28:20.170Z,30.37
2022-08-17T12:30:37.498Z,30.28
2022-08-17T12:32:54.519Z,30.51
2022-08-17T12:35:11.898Z,30.91
2022-08-17T12:37:29.918Z,30.67
2022-08-17T12:39:46.983Z,30.64
2022-08-17T12:42:04.341Z,30.47
2022-08-17T12:44:21.574Z,30.27
2022-08-17T12:46:38.657Z,30.38
2022-08-17T12:48:59.808Z,30.43
2022-08-17T12:51:17.005Z,30.53
2022-08-17T12:53:33.982Z,30.70
2022-08-17T12:55:51.048Z,30.78
2022-08-17T12:58:12.223Z,31.05
2022-08-17T13:00:31.023Z,31.35
2022-08-17T13:02:48.795Z,31.43
2022-08-17T13:05:07.148Z,31.43
2022-08-17T13:07:24.174Z,31.61
2022-08-17T13:09:41.464Z,31.58
2022-08-17T13:11:58.414Z,31.34
2022-08-17T13:14:16.393Z,31.08
2022-08-17T13:16:33.600Z,31.07
2022-08-17T13:18:51.566Z,31.25
2022-08-17T13:21:08.835Z,31.51
2022-08-17T13:23:25.914Z,31.65
2022-08-17T13:25:44.310Z,31.79
2022-08-17T13:28:01.472Z,31.75
2022-08-17T13:30:23.083Z,31.87
2022-08-17T13:32:42.963Z,31.93
2022-08-17T13:35:14.237Z,31.58
2022-08-17T13:37:34.788Z,31.48
2022-08-17T13:39:52.154Z,31.13
2022-08-17T13:42:13.527Z,30.82
2022-08-17T13:44:30.722Z,30.83
2022-08-17T13:46:47.733Z,30.76
2022-08-17T13:49:09.418Z,30.65
2022-08-17T13:51:26.439Z,30.97
2022-08-17T13:53:43.761Z,30.98
2022-08-17T13:56:01.026Z,31.04
2022-08-17T13:58:17.966Z,31.25
2022-08-17T14:00:35.041Z,31.24
2022-08-17T14:02:52.342Z,31.55
2022-08-17T14:05:09.379Z,31.96
2022-08-17T14:07:28.313Z,31.96
2022-08-17T14:09:45.621Z,32.00
2022-08-17T14:12:02.977Z,31.93
2022-08-17T14:14:20.023Z,31.68
2022-08-17T14:16:37.325Z,31.24
2022-08-17T14:18:56.701Z,30.94
2022-08-17T14:21:14.037Z,30.77
2022-08-17T14:23:31.196Z,30.55
2022-08-17T14:25:48.500Z,30.40
2022-08-17T14:28:05.554Z,30.34
2022-08-17T14:30:23.564Z,30.05
2022-08-17T14:32:41.071Z,30.01
2022-08-17T14:34:58.411Z,30.04
2022-08-17T14:37:16.441Z,30.16
2022-08-17T14:39:33.796Z,30.09
2022-08-17T14:41:52.131Z,30.42
2022-08-17T14:44:09.230Z,30.75
2022-08-17T14:46:26.518Z,30.66
2022-08-17T14:48:43.449Z,30.48
2022-08-17T14:51:00.556Z,30.54
2022-08-17T14:53:17.499Z,30.33
2022-08-17T14:55:34.783Z,30.07
2022-08-17T14:57:51.992Z,29.90
2022-08-17T15:00:09.327Z,29.88
2022-08-17T15:02:29.207Z,29.59
2022-08-17T15:04:47.569Z,29.40
2022-08-17T15:07:04.859Z,29.37
2022-08-17T15:09:21.940Z,29.20
2022-08-17T15:11:39.364Z,29.07
2022-08-17T15:13:56.427Z,28.98
2022-08-17T15:16:13.685Z,28.91
2022-08-17T15:18:30.972Z,28.96
2022-08-17T15:20:48.163Z,28.97
2022-08-17T15:23:05.155Z,29.19
2022-08-17T15:25:22.136Z,29.64
2022-08-17T15:27:39.221Z,29.99
2022-08-17T15:29:56.371Z,30.26
2022-08-17T15:32:13.438Z,30.53
2022-08-17T15:34:30.515Z,30.65
2022-08-17T15:36:49.363Z,30.56
2022-08-17T15:39:07.028Z,30.50
2022-08-17T15:41:24.058Z,30.11
2022-08-17T15:43:42.519Z,29.94
2022-08-17T15:46:00.465Z,29.67
2022-08-17T15:48:17.776Z,29.58
2022-08-17T15:50:34.780Z,29.68
2022-08-17T15:52:51.789Z,29.92
2022-08-17T15:55:10.045Z,30.20
2022-08-17T15:57:27.194Z,30.32
2022-08-17T15:59:45.167Z,30.52
2022-08-17T16:03:15.060Z,30.78
2022-08-17T16:04:40.802Z,30.89
2022-08-17T16:07:02.330Z,31.03
2022-08-17T16:09:19.361Z,31.02
2022-08-17T16:11:36.699Z,31.04
2022-08-17T16:13:54.787Z,31.01
2022-08-17T16:16:13.404Z,31.03
2022-08-17T16:18:30.757Z,30.80
2022-08-17T16:20:48.063Z,30.91
2022-08-17T16:23:06.120Z,30.83
2022-08-17T16:25:23.150Z,30.76
2022-08-17T16:28:00.074Z,30.72
2022-08-17T16:30:18.039Z,30.78
2022-08-17T16:32:36.494Z,30.75
2022-08-17T16:34:53.468Z,30.76
2022-08-17T16:37:10.532Z,30.58
2022-08-17T16:39:27.897Z,30.56
2022-08-17T16:41:45.193Z,30.53
2022-08-17T16:44:02.227Z,30.34
2022-08-17T16:46:19.265Z,30.27
2022-08-17T16:48:37.477Z,30.17
2022-08-17T16:51:03.504Z,30.25
2022-08-17T16:53:21.876Z,30.13
2022-08-17T16:55:39.166Z,30.00
2022-08-17T16:57:56.249Z,30.03
2022-08-17T17:00:13.308Z,29.93
2022-08-17T17:02:30.365Z,29.96
2022-08-17T17:04:47.763Z,29.94
2022-08-17T17:07:11.802Z,29.94
2022-08-17T17:09:28.875Z,29.99
2022-08-17T17:11:46.933Z,29.96
2022-08-17T17:14:03.911Z,29.92
2022-08-17T17:16:20.941Z,29.88
2022-08-17T17:18:37.967Z,29.87
2022-08-17T17:20:55.042Z,29.73
2022-08-17T17:23:12.112Z,29.61
2022-08-17T17:25:29.710Z,29.62
2022-08-17T17:27:47.904Z,29.57
2022-08-17T17:30:04.975Z,29.53
2022-08-17T17:32:22.044Z,29.48
2022-08-17T17:34:40.346Z,29.45
2022-08-17T17:36:57.320Z,29.34
2022-08-17T17:39:14.576Z,29.27
2022-08-17T17:41:32.627Z,29.06
2022-08-17T17:43:50.023Z,28.90
2022-08-17T17:46:27.548Z,28.79
2022-08-17T17:48:45.680Z,28.71
2022-08-17T17:51:02.654Z,28.65
2022-08-17T17:53:19.768Z,28.61
2022-08-17T17:55:51.867Z,28.49
2022-08-17T17:58:08.947Z,28.34
2022-08-17T18:00:25.977Z,28.23
2022-08-17T18:02:43.037Z,28.07
2022-08-17T18:04:59.998Z,27.88
2022-08-17T18:07:17.001Z,27.67
2022-08-17T18:09:34.270Z,27.38
2022-08-17T18:11:51.566Z,27.17
2022-08-17T18:14:09.032Z,26.98
2022-08-17T18:16:26.276Z,26.83
2022-08-17T18:18:43.541Z,26.75
2022-08-17T18:21:00.523Z,26.65
2022-08-17T18:23:17.606Z,26.48
2022-08-17T18:25:35.494Z,26.36
2022-08-17T18:27:52.680Z,26.20
2022-08-17T18:30:09.839Z,26.09
2022-08-17T18:32:26.824Z,25.97
2022-08-17T18:34:47.585Z,25.83
2022-08-17T18:37:05.662Z,25.70
2022-08-17T18:39:22.747Z,25.70
2022-08-17T18:41:39.838Z,25.54
2022-08-17T18:43:57.150Z,25.39
2022-08-17T18:46:14.107Z,25.26
2022-08-17T18:48:33.088Z,25.13
2022-08-17T18:50:53.306Z,24.99
2022-08-17T18:53:11.231Z,24.91
2022-08-17T18:55:28.151Z,24.81
2022-08-17T18:57:45.245Z,24.75
2022-08-17T19:00:02.263Z,24.65
2022-08-17T19:02:34.535Z,24.55
2022-08-17T19:04:56.315Z,24.41
2022-08-17T19:07:13.560Z,24.32
2022-08-17T19:09:33.388Z,24.21
2022-08-17T19:11:50.371Z,24.21
2022-08-17T19:14:07.561Z,24.12
2022-08-17T19:16:24.836Z,24.09
2022-08-17T19:18:44.336Z,24.00
2022-08-17T19:21:01.275Z,23.91
2022-08-17T19:23:18.499Z,23.87
2022-08-17T19:25:35.436Z,23.79
2022-08-17T19:27:57.671Z,23.69
2022-08-17T19:30:15.311Z,23.75
2022-08-17T19:32:32.282Z,23.66
2022-08-17T19:34:49.228Z,23.55
2022-08-17T19:37:06.475Z,23.49
2022-08-17T19:39:26.327Z,23.44
2022-08-17T19:41:55.801Z,23.35
2022-08-17T19:44:12.865Z,23.28
2022-08-17T19:46:30.120Z,23.25
2022-08-17T19:48:47.418Z,23.22
2022-08-17T19:51:04.454Z,23.17
2022-08-17T19:53:21.473Z,23.14
2022-08-17T19:55:38.773Z,23.09
2022-08-17T19:57:56.093Z,23.01
2022-08-17T20:00:13.102Z,22.93
2022-08-17T20:02:30.036Z,22.87
2022-08-17T20:04:47.367Z,22.79
2022-08-17T20:07:04.308Z,22.77
2022-08-17T20:09:21.631Z,22.76
2022-08-17T20:11:38.880Z,22.74
2022-08-17T20:13:55.875Z,22.70
2022-08-17T20:16:13.101Z,22.71
2022-08-17T20:18:30.137Z,22.76
2022-08-17T20:20:48.181Z,22.68
2022-08-17T20:23:05.266Z,22.64
2022-08-17T20:25:24.096Z,22.54
2022-08-17T20:27:48.000Z,22.52
2022-08-17T20:30:08.035Z,22.46
2022-08-17T20:32:24.951Z,22.37
2022-08-17T20:34:41.924Z,22.36
2022-08-17T20:36:58.992Z,22.27
2022-08-17T20:39:18.336Z,22.23
2022-08-17T20:41:35.253Z,22.15
2022-08-17T20:43:52.293Z,22.08
2022-08-17T20:46:09.611Z,22.07
2022-08-17T20:48:38.126Z,22.05
2022-08-17T20:50:56.046Z,22.03
2022-08-17T20:53:13.356Z,22.01
2022-08-17T20:55:32.330Z,21.97
2022-08-17T20:57:50.014Z,21.95
2022-08-17T21:00:07.502Z,21.94
2022-08-17T21:02:25.631Z,21.96
2022-08-17T21:04:42.614Z,22.06
2022-08-17T21:07:00.127Z,21.94
2022-08-17T21:09:17.103Z,21.83
2022-08-17T21:12:03.351Z,21.75
2022-08-17T21:14:11.729Z,21.72
2022-08-17T21:16:28.680Z,21.73
2022-08-17T21:18:46.048Z,21.74
2022-08-17T21:21:03.136Z,21.73
2022-08-17T21:23:20.171Z,21.71
2022-08-17T21:25:37.477Z,21.71
2022-08-17T21:27:55.772Z,21.67
2022-08-17T21:30:13.093Z,21.65
2022-08-17T21:32:30.364Z,21.68
2022-08-17T21:34:48.616Z,21.71
2022-08-17T21:37:06.184Z,21.71
2022-08-17T21:39:23.986Z,21.68
2022-08-17T21:41:48.056Z,21.64
2022-08-17T21:44:05.073Z,21.66
2022-08-17T21:46:23.443Z,21.66
2022-08-17T21:48:40.361Z,21.59
2022-08-17T21:50:57.432Z,21.53
2022-08-17T21:53:14.420Z,21.49
2022-08-17T21:55:31.702Z,21.49
2022-08-17T21:57:53.120Z,21.48
2022-08-17T22:00:25.777Z,21.58
2022-08-17T22:02:43.019Z,21.60
2022-08-17T22:05:00.132Z,21.59
2022-08-17T22:07:17.181Z,21.64
2022-08-17T22:09:35.430Z,21.67
2022-08-17T22:11:54.575Z,21.68
2022-08-17T22:14:12.279Z,21.67
2022-08-17T22:16:30.303Z,21.72
2022-08-17T22:18:50.083Z,21.70
2022-08-17T22:21:11.167Z,21.66
2022-08-17T22:23:28.397Z,21.66
2022-08-17T22:25:45.681Z,21.71
2022-08-17T22:28:03.008Z,21.71
2022-08-17T22:30:20.031Z,21.70
2022-08-17T22:32:36.981Z,21.71
2022-08-17T22:34:54.011Z,21.71
2022-08-17T22:37:12.007Z,21.78
2022-08-17T22:39:29.049Z,21.77
2022-08-17T22:41:46.899Z,21.79
2022-08-17T22:44:03.886Z,21.81
2022-08-17T22:46:21.892Z,21.89
2022-08-17T22:48:39.229Z,21.88
2022-08-17T22:50:57.464Z,21.88
2022-08-17T22:53:14.556Z,21.87
2022-08-17T22:55:31.819Z,21.85
2022-08-17T22:57:49.303Z,21.82
2022-08-17T23:00:09.122Z,21.77
2022-08-17T23:02:28.057Z,21.75
2022-08-17T23:04:45.173Z,21.72
2022-08-17T23:07:02.508Z,21.69
2022-08-17T23:09:19.708Z,21.64
2022-08-17T23:11:48.587Z,21.63
2022-08-17T23:14:07.182Z,21.65
2022-08-17T23:16:24.451Z,21.69
2022-08-17T23:18:42.458Z,21.65
2022-08-17T23:20:59.511Z,21.63
2022-08-17T23:23:18.006Z,21.64
2022-08-17T23:25:37.606Z,21.59
2022-08-17T23:27:54.662Z,21.56
2022-08-17T23:30:11.600Z,21.57
2022-08-17T23:32:28.926Z,21.61
2022-08-17T23:34:45.930Z,21.63
2022-08-17T23:37:03.205Z,21.70
2022-08-17T23:39:27.640Z,21.71
2022-08-17T23:41:45.760Z,21.67
2022-08-17T23:44:02.877Z,21.66
2022-08-17T23:46:19.957Z,21.64
2022-08-17T23:50:55.272Z,21.63
2022-08-17T23:53:12.535Z,21.63
2022-08-17T23:55:29.482Z,21.53
2022-08-17T23:57:46.621Z,21.50
